sensor_id;sensor_type;location;lat;lon;timestamp;temperature;humidity
51557;DHT22;38766;53.194;5.532;2024-02-28T00:01:59;4.90;99.90
51557;DHT22;38766;53.194;5.532;2024-02-28T00:04:25;4.90;99.90
51557;DHT22;38766;53.194;5.532;2024-02-28T00:06:50;4.90;99.90
51557;DHT22;38766;53.194;5.532;2024-02-28T00:09:16;4.80;99.90
51557;DHT22;38766;53.194;5.532;2024-02-28T00:11:46;4.80;99.90
51557;DHT22;38766;53.194;5.532;2024-02-28T00:14:15;4.80;99.90
51557;DHT22;38766;53.194;5.532;2024-02-28T00:16:41;4.70;99.90
51557;DHT22;38766;53.194;5.532;2024-02-28T00:19:08;4.70;99.90
51557;DHT22;38766;53.194;5.532;2024-02-28T00:21:33;4.70;99.90
51557;DHT22;38766;53.194;5.532;2024-02-28T00:23:59;4.70;99.90
51557;DHT22;38766;53.194;5.532;2024-02-28T00:26:25;4.70;99.90
51557;DHT22;38766;53.194;5.532;2024-02-28T00:28:51;4.70;99.90
51557;DHT22;38766;53.194;5.532;2024-02-28T00:31:16;4.70;99.90
51557;DHT22;38766;53.194;5.532;2024-02-28T00:33:42;4.70;99.90
51557;DHT22;38766;53.194;5.532;2024-02-28T00:36:07;4.70;99.90
51557;DHT22;38766;53.194;5.532;2024-02-28T00:38:33;4.70;99.90
51557;DHT22;38766;53.194;5.532;2024-02-28T00:40:58;4.70;99.90
51557;DHT22;38766;53.194;5.532;2024-02-28T00:43:24;4.60;99.90
51557;DHT22;38766;53.194;5.532;2024-02-28T00:45:50;4.60;99.90
51557;DHT22;38766;53.194;5.532;2024-02-28T00:48:16;4.60;99.90
51557;DHT22;38766;53.194;5.532;2024-02-28T00:50:41;4.60;99.90
51557;DHT22;38766;53.194;5.532;2024-02-28T00:53:07;4.60;99.90
51557;DHT22;38766;53.194;5.532;2024-02-28T00:55:32;4.60;99.90
51557;DHT22;38766;53.194;5.532;2024-02-28T00:57:58;4.60;99.90
51557;DHT22;38766;53.194;5.532;2024-02-28T01:00:23;4.60;99.90
51557;DHT22;38766;53.194;5.532;2024-02-28T01:02:49;4.70;99.90
51557;DHT22;38766;53.194;5.532;2024-02-28T01:05:15;4.70;99.90
51557;DHT22;38766;53.194;5.532;2024-02-28T01:07:40;4.70;99.90
51557;DHT22;38766;53.194;5.532;2024-02-28T01:10:07;4.70;99.90
51557;DHT22;38766;53.194;5.532;2024-02-28T01:12:32;4.70;99.90
51557;DHT22;38766;53.194;5.532;2024-02-28T01:14:58;4.70;99.90
51557;DHT22;38766;53.194;5.532;2024-02-28T01:17:24;4.70;99.90
51557;DHT22;38766;53.194;5.532;2024-02-28T01:19:49;4.80;99.90
51557;DHT22;38766;53.194;5.532;2024-02-28T01:22:15;4.80;99.90
51557;DHT22;38766;53.194;5.532;2024-02-28T01:24:40;4.80;99.90
51557;DHT22;38766;53.194;5.532;2024-02-28T01:27:06;4.80;99.90
51557;DHT22;38766;53.194;5.532;2024-02-28T01:29:32;4.80;99.90
51557;DHT22;38766;53.194;5.532;2024-02-28T01:31:58;4.80;99.90
51557;DHT22;38766;53.194;5.532;2024-02-28T01:34:23;4.90;99.90
51557;DHT22;38766;53.194;5.532;2024-02-28T01:36:49;4.90;99.90
51557;DHT22;38766;53.194;5.532;2024-02-28T01:39:14;4.90;99.90
51557;DHT22;38766;53.194;5.532;2024-02-28T01:41:40;4.90;99.90
51557;DHT22;38766;53.194;5.532;2024-02-28T01:44:08;4.90;99.90
51557;DHT22;38766;53.194;5.532;2024-02-28T01:46:34;5.00;99.90
51557;DHT22;38766;53.194;5.532;2024-02-28T01:49:00;5.00;99.90
51557;DHT22;38766;53.194;5.532;2024-02-28T01:51:26;5.00;99.90
51557;DHT22;38766;53.194;5.532;2024-02-28T01:53:54;5.10;99.90
51557;DHT22;38766;53.194;5.532;2024-02-28T01:56:20;5.10;99.90
51557;DHT22;38766;53.194;5.532;2024-02-28T01:58:48;5.10;99.90
51557;DHT22;38766;53.194;5.532;2024-02-28T02:01:15;5.10;99.90
51557;DHT22;38766;53.194;5.532;2024-02-28T02:03:42;5.10;99.90
51557;DHT22;38766;53.194;5.532;2024-02-28T02:06:08;5.20;99.90
51557;DHT22;38766;53.194;5.532;2024-02-28T02:08:34;5.20;99.90
51557;DHT22;38766;53.194;5.532;2024-02-28T02:11:00;5.20;99.90
51557;DHT22;38766;53.194;5.532;2024-02-28T02:13:25;5.20;99.90
51557;DHT22;38766;53.194;5.532;2024-02-28T02:15:51;5.30;99.90
51557;DHT22;38766;53.194;5.532;2024-02-28T02:18:17;5.30;99.90
51557;DHT22;38766;53.194;5.532;2024-02-28T02:20:44;5.30;99.90
51557;DHT22;38766;53.194;5.532;2024-02-28T02:23:12;5.30;99.90
51557;DHT22;38766;53.194;5.532;2024-02-28T02:25:45;5.30;99.90
51557;DHT22;38766;53.194;5.532;2024-02-28T02:28:11;5.40;99.90
51557;DHT22;38766;53.194;5.532;2024-02-28T02:30:38;5.40;99.90
51557;DHT22;38766;53.194;5.532;2024-02-28T02:33:04;5.50;99.90
51557;DHT22;38766;53.194;5.532;2024-02-28T02:35:29;5.50;99.90
51557;DHT22;38766;53.194;5.532;2024-02-28T02:37:55;5.50;99.90
51557;DHT22;38766;53.194;5.532;2024-02-28T02:40:20;5.50;99.90
51557;DHT22;38766;53.194;5.532;2024-02-28T02:42:46;5.50;99.90
51557;DHT22;38766;53.194;5.532;2024-02-28T02:45:12;5.50;99.90
51557;DHT22;38766;53.194;5.532;2024-02-28T02:47:37;5.50;99.90
51557;DHT22;38766;53.194;5.532;2024-02-28T02:50:03;5.50;99.90
51557;DHT22;38766;53.194;5.532;2024-02-28T02:52:29;5.50;99.90
51557;DHT22;38766;53.194;5.532;2024-02-28T02:54:54;5.50;99.90
51557;DHT22;38766;53.194;5.532;2024-02-28T02:57:20;5.50;99.90
51557;DHT22;38766;53.194;5.532;2024-02-28T02:59:46;5.50;99.90
51557;DHT22;38766;53.194;5.532;2024-02-28T03:02:11;5.50;99.90
51557;DHT22;38766;53.194;5.532;2024-02-28T03:04:37;5.50;99.90
51557;DHT22;38766;53.194;5.532;2024-02-28T03:07:02;5.50;99.90
51557;DHT22;38766;53.194;5.532;2024-02-28T03:09:28;5.60;99.90
51557;DHT22;38766;53.194;5.532;2024-02-28T03:11:53;5.50;99.90
51557;DHT22;38766;53.194;5.532;2024-02-28T03:14:19;5.50;99.90
51557;DHT22;38766;53.194;5.532;2024-02-28T03:16:47;5.50;99.90
51557;DHT22;38766;53.194;5.532;2024-02-28T03:19:14;5.50;99.90
51557;DHT22;38766;53.194;5.532;2024-02-28T03:21:40;5.50;99.90
51557;DHT22;38766;53.194;5.532;2024-02-28T03:24:07;5.50;99.90
51557;DHT22;38766;53.194;5.532;2024-02-28T03:26:32;5.50;99.90
51557;DHT22;38766;53.194;5.532;2024-02-28T03:28:58;5.50;99.90
51557;DHT22;38766;53.194;5.532;2024-02-28T03:31:24;5.50;99.90
51557;DHT22;38766;53.194;5.532;2024-02-28T03:33:50;5.50;99.90
51557;DHT22;38766;53.194;5.532;2024-02-28T03:36:16;5.60;99.90
51557;DHT22;38766;53.194;5.532;2024-02-28T03:38:41;5.60;99.90
51557;DHT22;38766;53.194;5.532;2024-02-28T03:41:07;5.50;99.90
51557;DHT22;38766;53.194;5.532;2024-02-28T03:43:33;5.60;99.90
51557;DHT22;38766;53.194;5.532;2024-02-28T03:45:58;5.60;99.90
51557;DHT22;38766;53.194;5.532;2024-02-28T03:48:24;5.60;99.90
51557;DHT22;38766;53.194;5.532;2024-02-28T03:50:49;5.60;99.90
51557;DHT22;38766;53.194;5.532;2024-02-28T03:53:16;5.60;99.90
51557;DHT22;38766;53.194;5.532;2024-02-28T03:55:41;5.60;99.90
51557;DHT22;38766;53.194;5.532;2024-02-28T03:58:10;5.60;99.90
51557;DHT22;38766;53.194;5.532;2024-02-28T04:00:36;5.70;99.90
51557;DHT22;38766;53.194;5.532;2024-02-28T04:03:02;5.60;99.90
51557;DHT22;38766;53.194;5.532;2024-02-28T04:05:29;5.60;99.90
51557;DHT22;38766;53.194;5.532;2024-02-28T04:07:55;5.70;99.90
51557;DHT22;38766;53.194;5.532;2024-02-28T04:10:20;5.70;99.90
51557;DHT22;38766;53.194;5.532;2024-02-28T04:12:46;5.70;99.90
51557;DHT22;38766;53.194;5.532;2024-02-28T04:15:12;5.70;99.90
51557;DHT22;38766;53.194;5.532;2024-02-28T04:17:38;5.70;99.90
51557;DHT22;38766;53.194;5.532;2024-02-28T04:20:09;5.80;99.90
51557;DHT22;38766;53.194;5.532;2024-02-28T04:22:34;5.80;99.90
51557;DHT22;38766;53.194;5.532;2024-02-28T04:25:00;5.70;99.90
51557;DHT22;38766;53.194;5.532;2024-02-28T04:27:25;5.80;99.90
51557;DHT22;38766;53.194;5.532;2024-02-28T04:29:51;5.80;99.90
51557;DHT22;38766;53.194;5.532;2024-02-28T04:32:17;5.80;99.90
51557;DHT22;38766;53.194;5.532;2024-02-28T04:34:42;5.80;99.90
51557;DHT22;38766;53.194;5.532;2024-02-28T04:37:08;5.90;99.90
51557;DHT22;38766;53.194;5.532;2024-02-28T04:39:33;5.90;99.90
51557;DHT22;38766;53.194;5.532;2024-02-28T04:41:59;5.90;99.90
51557;DHT22;38766;53.194;5.532;2024-02-28T04:44:25;5.90;99.90
51557;DHT22;38766;53.194;5.532;2024-02-28T04:46:50;5.90;99.90
51557;DHT22;38766;53.194;5.532;2024-02-28T04:49:16;5.90;99.90
51557;DHT22;38766;53.194;5.532;2024-02-28T04:51:41;5.90;99.90
51557;DHT22;38766;53.194;5.532;2024-02-28T04:54:07;6.00;99.90
51557;DHT22;38766;53.194;5.532;2024-02-28T04:56:32;6.00;99.90
51557;DHT22;38766;53.194;5.532;2024-02-28T04:58:58;6.00;99.90
51557;DHT22;38766;53.194;5.532;2024-02-28T05:01:24;6.00;99.90
51557;DHT22;38766;53.194;5.532;2024-02-28T05:03:49;6.00;99.90
51557;DHT22;38766;53.194;5.532;2024-02-28T05:06:15;6.10;99.90
51557;DHT22;38766;53.194;5.532;2024-02-28T05:08:41;6.10;99.90
51557;DHT22;38766;53.194;5.532;2024-02-28T05:11:07;6.10;99.90
51557;DHT22;38766;53.194;5.532;2024-02-28T05:13:33;6.10;99.90
51557;DHT22;38766;53.194;5.532;2024-02-28T05:15:58;6.20;99.90
51557;DHT22;38766;53.194;5.532;2024-02-28T05:18:24;6.20;99.90
51557;DHT22;38766;53.194;5.532;2024-02-28T05:20:50;6.30;99.90
51557;DHT22;38766;53.194;5.532;2024-02-28T05:23:16;6.30;99.90
51557;DHT22;38766;53.194;5.532;2024-02-28T05:25:41;6.30;99.90
51557;DHT22;38766;53.194;5.532;2024-02-28T05:28:07;6.30;99.90
51557;DHT22;38766;53.194;5.532;2024-02-28T05:30:32;6.30;99.90
51557;DHT22;38766;53.194;5.532;2024-02-28T05:32:58;6.40;99.90
51557;DHT22;38766;53.194;5.532;2024-02-28T05:35:23;6.40;99.90
51557;DHT22;38766;53.194;5.532;2024-02-28T05:37:53;6.40;99.90
51557;DHT22;38766;53.194;5.532;2024-02-28T05:40:20;6.40;99.90
51557;DHT22;38766;53.194;5.532;2024-02-28T05:42:45;6.50;99.90
51557;DHT22;38766;53.194;5.532;2024-02-28T05:45:11;6.50;99.90
51557;DHT22;38766;53.194;5.532;2024-02-28T05:47:37;6.50;99.90
51557;DHT22;38766;53.194;5.532;2024-02-28T05:50:04;6.50;99.90
51557;DHT22;38766;53.194;5.532;2024-02-28T05:52:32;6.60;99.90
51557;DHT22;38766;53.194;5.532;2024-02-28T05:54:57;6.60;99.90
51557;DHT22;38766;53.194;5.532;2024-02-28T05:57:23;6.60;99.90
51557;DHT22;38766;53.194;5.532;2024-02-28T05:59:49;6.60;99.90
51557;DHT22;38766;53.194;5.532;2024-02-28T06:02:14;6.60;99.90
51557;DHT22;38766;53.194;5.532;2024-02-28T06:04:40;6.50;99.90
51557;DHT22;38766;53.194;5.532;2024-02-28T06:07:06;6.60;99.90
51557;DHT22;38766;53.194;5.532;2024-02-28T06:09:32;6.60;99.90
51557;DHT22;38766;53.194;5.532;2024-02-28T06:11:57;6.60;99.90
51557;DHT22;38766;53.194;5.532;2024-02-28T06:14:23;6.70;99.90
51557;DHT22;38766;53.194;5.532;2024-02-28T06:16:48;6.70;99.90
51557;DHT22;38766;53.194;5.532;2024-02-28T06:19:14;6.60;99.90
51557;DHT22;38766;53.194;5.532;2024-02-28T06:21:39;6.60;99.90
51557;DHT22;38766;53.194;5.532;2024-02-28T06:24:05;6.60;99.90
51557;DHT22;38766;53.194;5.532;2024-02-28T06:26:31;6.60;99.90
51557;DHT22;38766;53.194;5.532;2024-02-28T06:28:57;6.60;99.90
51557;DHT22;38766;53.194;5.532;2024-02-28T06:31:27;6.50;99.90
51557;DHT22;38766;53.194;5.532;2024-02-28T06:33:57;6.50;99.90
51557;DHT22;38766;53.194;5.532;2024-02-28T06:36:22;6.50;99.90
51557;DHT22;38766;53.194;5.532;2024-02-28T06:38:48;6.40;99.90
51557;DHT22;38766;53.194;5.532;2024-02-28T06:41:13;6.40;99.90
51557;DHT22;38766;53.194;5.532;2024-02-28T06:43:39;6.40;99.90
51557;DHT22;38766;53.194;5.532;2024-02-28T06:46:05;6.30;99.90
51557;DHT22;38766;53.194;5.532;2024-02-28T06:48:30;6.40;99.90
51557;DHT22;38766;53.194;5.532;2024-02-28T06:50:56;6.30;99.90
51557;DHT22;38766;53.194;5.532;2024-02-28T06:53:23;6.30;99.90
51557;DHT22;38766;53.194;5.532;2024-02-28T06:55:49;6.30;99.90
51557;DHT22;38766;53.194;5.532;2024-02-28T06:58:15;6.30;99.90
51557;DHT22;38766;53.194;5.532;2024-02-28T07:00:41;6.30;99.90
51557;DHT22;38766;53.194;5.532;2024-02-28T07:03:06;6.30;99.90
51557;DHT22;38766;53.194;5.532;2024-02-28T07:05:33;6.30;99.90
51557;DHT22;38766;53.194;5.532;2024-02-28T07:07:59;6.30;99.90
51557;DHT22;38766;53.194;5.532;2024-02-28T07:10:25;6.30;99.90
51557;DHT22;38766;53.194;5.532;2024-02-28T07:12:51;6.20;99.90
51557;DHT22;38766;53.194;5.532;2024-02-28T07:15:16;6.20;99.90
51557;DHT22;38766;53.194;5.532;2024-02-28T07:17:47;6.20;99.90
51557;DHT22;38766;53.194;5.532;2024-02-28T07:20:12;6.20;99.90
51557;DHT22;38766;53.194;5.532;2024-02-28T07:22:38;6.30;99.90
51557;DHT22;38766;53.194;5.532;2024-02-28T07:25:05;6.30;99.90
51557;DHT22;38766;53.194;5.532;2024-02-28T07:27:31;6.30;99.90
51557;DHT22;38766;53.194;5.532;2024-02-28T07:29:56;6.40;99.90
51557;DHT22;38766;53.194;5.532;2024-02-28T07:32:22;6.30;99.90
51557;DHT22;38766;53.194;5.532;2024-02-28T07:34:48;6.40;99.90
51557;DHT22;38766;53.194;5.532;2024-02-28T07:37:14;6.40;99.90
51557;DHT22;38766;53.194;5.532;2024-02-28T07:39:40;6.30;99.90
51557;DHT22;38766;53.194;5.532;2024-02-28T07:42:05;6.40;99.90
51557;DHT22;38766;53.194;5.532;2024-02-28T07:44:31;6.40;99.90
51557;DHT22;38766;53.194;5.532;2024-02-28T07:46:59;6.40;99.90
51557;DHT22;38766;53.194;5.532;2024-02-28T07:49:25;6.40;99.90
51557;DHT22;38766;53.194;5.532;2024-02-28T07:51:51;6.40;99.90
51557;DHT22;38766;53.194;5.532;2024-02-28T07:54:17;6.40;99.90
51557;DHT22;38766;53.194;5.532;2024-02-28T07:56:43;6.40;99.90
51557;DHT22;38766;53.194;5.532;2024-02-28T07:59:09;6.40;99.90
51557;DHT22;38766;53.194;5.532;2024-02-28T08:01:35;6.50;99.90
51557;DHT22;38766;53.194;5.532;2024-02-28T08:04:01;6.50;99.90
51557;DHT22;38766;53.194;5.532;2024-02-28T08:06:27;6.50;99.90
51557;DHT22;38766;53.194;5.532;2024-02-28T08:08:53;6.60;99.90
51557;DHT22;38766;53.194;5.532;2024-02-28T08:11:18;6.60;99.90
51557;DHT22;38766;53.194;5.532;2024-02-28T08:13:44;6.70;99.90
51557;DHT22;38766;53.194;5.532;2024-02-28T08:16:10;6.70;99.90
51557;DHT22;38766;53.194;5.532;2024-02-28T08:18:36;6.80;99.90
51557;DHT22;38766;53.194;5.532;2024-02-28T08:21:02;6.80;99.90
51557;DHT22;38766;53.194;5.532;2024-02-28T08:23:32;6.80;99.90
51557;DHT22;38766;53.194;5.532;2024-02-28T08:25:57;6.80;99.90
51557;DHT22;38766;53.194;5.532;2024-02-28T08:28:23;6.90;99.90
51557;DHT22;38766;53.194;5.532;2024-02-28T08:30:49;6.90;99.90
51557;DHT22;38766;53.194;5.532;2024-02-28T08:33:14;6.90;99.90
51557;DHT22;38766;53.194;5.532;2024-02-28T08:35:40;7.00;99.90
51557;DHT22;38766;53.194;5.532;2024-02-28T08:38:06;7.00;99.90
51557;DHT22;38766;53.194;5.532;2024-02-28T08:40:31;7.10;99.90
51557;DHT22;38766;53.194;5.532;2024-02-28T08:42:57;7.10;99.90
51557;DHT22;38766;53.194;5.532;2024-02-28T08:45:23;7.10;99.90
51557;DHT22;38766;53.194;5.532;2024-02-28T08:47:49;7.20;99.90
51557;DHT22;38766;53.194;5.532;2024-02-28T08:50:14;7.20;99.90
51557;DHT22;38766;53.194;5.532;2024-02-28T08:52:40;7.20;99.90
51557;DHT22;38766;53.194;5.532;2024-02-28T08:55:05;7.20;99.90
51557;DHT22;38766;53.194;5.532;2024-02-28T08:57:31;7.30;99.90
51557;DHT22;38766;53.194;5.532;2024-02-28T08:59:57;7.30;99.90
51557;DHT22;38766;53.194;5.532;2024-02-28T09:02:23;7.30;99.90
51557;DHT22;38766;53.194;5.532;2024-02-28T09:04:48;7.30;99.90
51557;DHT22;38766;53.194;5.532;2024-02-28T09:07:18;7.40;99.90
51557;DHT22;38766;53.194;5.532;2024-02-28T09:09:46;7.40;99.90
51557;DHT22;38766;53.194;5.532;2024-02-28T09:12:13;7.40;99.90
51557;DHT22;38766;53.194;5.532;2024-02-28T09:14:39;7.40;99.90
51557;DHT22;38766;53.194;5.532;2024-02-28T09:17:05;7.40;99.90
51557;DHT22;38766;53.194;5.532;2024-02-28T09:19:31;7.40;99.90
51557;DHT22;38766;53.194;5.532;2024-02-28T09:21:57;7.50;99.90
51557;DHT22;38766;53.194;5.532;2024-02-28T09:24:24;7.60;99.90
51557;DHT22;38766;53.194;5.532;2024-02-28T09:26:50;7.60;99.90
51557;DHT22;38766;53.194;5.532;2024-02-28T09:29:15;7.60;99.90
51557;DHT22;38766;53.194;5.532;2024-02-28T09:31:41;7.70;99.90
51557;DHT22;38766;53.194;5.532;2024-02-28T09:34:06;7.80;99.90
51557;DHT22;38766;53.194;5.532;2024-02-28T09:36:44;7.90;99.90
51557;DHT22;38766;53.194;5.532;2024-02-28T09:39:13;8.00;99.90
51557;DHT22;38766;53.194;5.532;2024-02-28T09:41:41;8.00;99.90
51557;DHT22;38766;53.194;5.532;2024-02-28T09:44:07;8.00;99.90
51557;DHT22;38766;53.194;5.532;2024-02-28T09:46:34;8.10;99.90
51557;DHT22;38766;53.194;5.532;2024-02-28T09:49:03;8.10;99.90
51557;DHT22;38766;53.194;5.532;2024-02-28T09:51:33;8.20;99.90
51557;DHT22;38766;53.194;5.532;2024-02-28T09:53:59;8.20;99.90
51557;DHT22;38766;53.194;5.532;2024-02-28T09:56:26;8.20;99.90
51557;DHT22;38766;53.194;5.532;2024-02-28T09:58:54;8.20;99.90
51557;DHT22;38766;53.194;5.532;2024-02-28T10:01:20;8.20;99.90
51557;DHT22;38766;53.194;5.532;2024-02-28T10:03:48;8.20;99.90
51557;DHT22;38766;53.194;5.532;2024-02-28T10:06:15;8.30;99.90
51557;DHT22;38766;53.194;5.532;2024-02-28T10:08:41;8.40;99.90
51557;DHT22;38766;53.194;5.532;2024-02-28T10:11:07;8.50;99.90
51557;DHT22;38766;53.194;5.532;2024-02-28T10:13:32;8.60;99.90
51557;DHT22;38766;53.194;5.532;2024-02-28T10:15:58;8.60;99.90
51557;DHT22;38766;53.194;5.532;2024-02-28T10:18:25;8.70;99.90
51557;DHT22;38766;53.194;5.532;2024-02-28T10:20:51;8.80;99.90
51557;DHT22;38766;53.194;5.532;2024-02-28T10:23:17;8.90;99.90
51557;DHT22;38766;53.194;5.532;2024-02-28T10:25:46;9.10;99.90
51557;DHT22;38766;53.194;5.532;2024-02-28T10:28:13;9.20;99.90
51557;DHT22;38766;53.194;5.532;2024-02-28T10:30:43;9.30;99.90
51557;DHT22;38766;53.194;5.532;2024-02-28T10:33:11;9.30;99.90
51557;DHT22;38766;53.194;5.532;2024-02-28T10:35:37;9.30;99.90
51557;DHT22;38766;53.194;5.532;2024-02-28T10:38:04;9.30;99.90
51557;DHT22;38766;53.194;5.532;2024-02-28T10:40:30;9.30;99.90
51557;DHT22;38766;53.194;5.532;2024-02-28T10:42:57;9.30;99.90
51557;DHT22;38766;53.194;5.532;2024-02-28T10:45:24;9.30;99.90
51557;DHT22;38766;53.194;5.532;2024-02-28T10:47:54;9.30;99.90
51557;DHT22;38766;53.194;5.532;2024-02-28T10:50:21;9.20;99.90
51557;DHT22;38766;53.194;5.532;2024-02-28T10:52:48;9.20;99.90
51557;DHT22;38766;53.194;5.532;2024-02-28T10:55:20;9.20;99.90
51557;DHT22;38766;53.194;5.532;2024-02-28T10:57:54;9.30;99.90
51557;DHT22;38766;53.194;5.532;2024-02-28T11:00:23;9.30;99.90
51557;DHT22;38766;53.194;5.532;2024-02-28T11:02:49;9.30;99.90
51557;DHT22;38766;53.194;5.532;2024-02-28T11:05:15;9.20;99.90
51557;DHT22;38766;53.194;5.532;2024-02-28T11:07:41;9.20;99.90
51557;DHT22;38766;53.194;5.532;2024-02-28T11:10:08;9.30;99.90
51557;DHT22;38766;53.194;5.532;2024-02-28T11:12:35;9.20;99.90
51557;DHT22;38766;53.194;5.532;2024-02-28T11:15:03;9.20;99.90
51557;DHT22;38766;53.194;5.532;2024-02-28T11:17:32;9.20;99.90
51557;DHT22;38766;53.194;5.532;2024-02-28T11:19:58;9.20;99.90
51557;DHT22;38766;53.194;5.532;2024-02-28T11:22:27;9.10;99.90
51557;DHT22;38766;53.194;5.532;2024-02-28T11:24:56;9.10;99.90
51557;DHT22;38766;53.194;5.532;2024-02-28T11:27:22;9.10;99.90
51557;DHT22;38766;53.194;5.532;2024-02-28T11:29:48;9.00;99.90
51557;DHT22;38766;53.194;5.532;2024-02-28T11:32:15;9.00;99.90
51557;DHT22;38766;53.194;5.532;2024-02-28T11:34:41;9.00;99.90
51557;DHT22;38766;53.194;5.532;2024-02-28T11:37:08;9.00;99.90
51557;DHT22;38766;53.194;5.532;2024-02-28T11:39:34;8.90;99.90
51557;DHT22;38766;53.194;5.532;2024-02-28T11:42:13;8.90;99.90
51557;DHT22;38766;53.194;5.532;2024-02-28T11:44:39;8.80;99.90
51557;DHT22;38766;53.194;5.532;2024-02-28T11:47:08;8.80;99.90
51557;DHT22;38766;53.194;5.532;2024-02-28T11:49:34;8.70;99.90
51557;DHT22;38766;53.194;5.532;2024-02-28T11:52:00;8.80;99.90
51557;DHT22;38766;53.194;5.532;2024-02-28T11:54:26;8.80;99.90
51557;DHT22;38766;53.194;5.532;2024-02-28T11:56:51;8.90;99.90
51557;DHT22;38766;53.194;5.532;2024-02-28T11:59:17;8.90;99.90
51557;DHT22;38766;53.194;5.532;2024-02-28T12:01:43;9.00;99.90
51557;DHT22;38766;53.194;5.532;2024-02-28T12:04:10;9.10;99.90
51557;DHT22;38766;53.194;5.532;2024-02-28T12:06:37;9.20;99.90
51557;DHT22;38766;53.194;5.532;2024-02-28T12:09:12;9.20;99.90
51557;DHT22;38766;53.194;5.532;2024-02-28T12:11:40;9.20;99.90
51557;DHT22;38766;53.194;5.532;2024-02-28T12:14:07;9.10;99.90
51557;DHT22;38766;53.194;5.532;2024-02-28T12:16:36;9.10;99.90
51557;DHT22;38766;53.194;5.532;2024-02-28T12:19:10;9.00;99.90
51557;DHT22;38766;53.194;5.532;2024-02-28T12:21:39;9.00;99.90
51557;DHT22;38766;53.194;5.532;2024-02-28T12:24:07;9.00;99.90
51557;DHT22;38766;53.194;5.532;2024-02-28T12:26:34;9.00;99.90
51557;DHT22;38766;53.194;5.532;2024-02-28T12:29:00;8.90;99.90
51557;DHT22;38766;53.194;5.532;2024-02-28T12:31:27;8.90;99.90
51557;DHT22;38766;53.194;5.532;2024-02-28T12:33:52;8.90;99.90
51557;DHT22;38766;53.194;5.532;2024-02-28T12:36:23;8.90;99.90
51557;DHT22;38766;53.194;5.532;2024-02-28T12:38:48;8.90;99.90
51557;DHT22;38766;53.194;5.532;2024-02-28T12:41:14;8.90;99.90
51557;DHT22;38766;53.194;5.532;2024-02-28T12:43:41;8.90;99.90
51557;DHT22;38766;53.194;5.532;2024-02-28T12:46:06;8.90;99.90
51557;DHT22;38766;53.194;5.532;2024-02-28T12:48:41;8.90;99.90
51557;DHT22;38766;53.194;5.532;2024-02-28T12:51:08;9.00;99.90
51557;DHT22;38766;53.194;5.532;2024-02-28T12:53:35;9.00;99.90
51557;DHT22;38766;53.194;5.532;2024-02-28T12:56:01;9.00;99.90
51557;DHT22;38766;53.194;5.532;2024-02-28T12:58:27;9.00;99.90
51557;DHT22;38766;53.194;5.532;2024-02-28T13:00:53;9.00;99.90
51557;DHT22;38766;53.194;5.532;2024-02-28T13:03:19;9.10;99.90
51557;DHT22;38766;53.194;5.532;2024-02-28T13:05:44;9.10;99.90
51557;DHT22;38766;53.194;5.532;2024-02-28T13:08:10;9.10;99.90
51557;DHT22;38766;53.194;5.532;2024-02-28T13:10:36;9.10;99.90
51557;DHT22;38766;53.194;5.532;2024-02-28T13:13:07;9.20;99.90
51557;DHT22;38766;53.194;5.532;2024-02-28T13:15:33;9.20;99.90
51557;DHT22;38766;53.194;5.532;2024-02-28T13:17:58;9.10;99.90
51557;DHT22;38766;53.194;5.532;2024-02-28T13:20:24;9.10;99.90
51557;DHT22;38766;53.194;5.532;2024-02-28T13:22:50;9.20;99.90
51557;DHT22;38766;53.194;5.532;2024-02-28T13:25:16;9.10;99.90
51557;DHT22;38766;53.194;5.532;2024-02-28T13:27:47;9.10;99.90
51557;DHT22;38766;53.194;5.532;2024-02-28T13:30:13;9.10;99.90
51557;DHT22;38766;53.194;5.532;2024-02-28T13:32:40;9.10;99.90
51557;DHT22;38766;53.194;5.532;2024-02-28T13:35:07;9.10;99.90
51557;DHT22;38766;53.194;5.532;2024-02-28T13:37:32;9.10;99.90
51557;DHT22;38766;53.194;5.532;2024-02-28T13:39:58;9.10;99.90
51557;DHT22;38766;53.194;5.532;2024-02-28T13:42:24;9.10;99.90
51557;DHT22;38766;53.194;5.532;2024-02-28T13:44:50;9.10;99.90
51557;DHT22;38766;53.194;5.532;2024-02-28T13:47:16;9.20;99.90
51557;DHT22;38766;53.194;5.532;2024-02-28T13:49:42;9.20;99.90
51557;DHT22;38766;53.194;5.532;2024-02-28T13:52:08;9.20;99.90
51557;DHT22;38766;53.194;5.532;2024-02-28T13:54:33;9.20;99.90
51557;DHT22;38766;53.194;5.532;2024-02-28T13:57:00;9.20;99.90
51557;DHT22;38766;53.194;5.532;2024-02-28T13:59:27;9.20;99.90
51557;DHT22;38766;53.194;5.532;2024-02-28T14:01:52;9.30;99.90
51557;DHT22;38766;53.194;5.532;2024-02-28T14:04:18;9.30;99.90
51557;DHT22;38766;53.194;5.532;2024-02-28T14:06:44;9.20;99.90
51557;DHT22;38766;53.194;5.532;2024-02-28T14:09:10;9.20;99.90
51557;DHT22;38766;53.194;5.532;2024-02-28T14:11:36;9.10;99.90
51557;DHT22;38766;53.194;5.532;2024-02-28T14:14:01;9.10;99.90
51557;DHT22;38766;53.194;5.532;2024-02-28T14:16:27;9.10;99.90
51557;DHT22;38766;53.194;5.532;2024-02-28T14:18:53;9.10;99.90
51557;DHT22;38766;53.194;5.532;2024-02-28T14:21:19;9.10;99.90
51557;DHT22;38766;53.194;5.532;2024-02-28T14:23:45;9.20;99.90
51557;DHT22;38766;53.194;5.532;2024-02-28T14:26:11;9.10;99.90
51557;DHT22;38766;53.194;5.532;2024-02-28T14:28:37;9.10;99.90
51557;DHT22;38766;53.194;5.532;2024-02-28T14:31:03;9.20;99.90
51557;DHT22;38766;53.194;5.532;2024-02-28T14:33:29;9.10;99.90
51557;DHT22;38766;53.194;5.532;2024-02-28T14:35:55;9.10;99.90
51557;DHT22;38766;53.194;5.532;2024-02-28T14:38:20;9.10;99.90
51557;DHT22;38766;53.194;5.532;2024-02-28T14:40:46;9.10;99.90
51557;DHT22;38766;53.194;5.532;2024-02-28T14:43:11;9.00;99.90
51557;DHT22;38766;53.194;5.532;2024-02-28T14:45:37;9.00;99.90
51557;DHT22;38766;53.194;5.532;2024-02-28T14:48:03;9.00;99.90
51557;DHT22;38766;53.194;5.532;2024-02-28T14:50:28;9.00;99.90
51557;DHT22;38766;53.194;5.532;2024-02-28T14:52:54;9.00;99.90
51557;DHT22;38766;53.194;5.532;2024-02-28T14:55:19;9.00;99.90
51557;DHT22;38766;53.194;5.532;2024-02-28T14:57:45;9.00;99.90
51557;DHT22;38766;53.194;5.532;2024-02-28T15:00:11;9.00;99.90
51557;DHT22;38766;53.194;5.532;2024-02-28T15:02:40;8.90;99.90
51557;DHT22;38766;53.194;5.532;2024-02-28T15:05:06;8.90;99.90
51557;DHT22;38766;53.194;5.532;2024-02-28T15:07:33;8.90;99.90
51557;DHT22;38766;53.194;5.532;2024-02-28T15:09:59;8.90;99.90
51557;DHT22;38766;53.194;5.532;2024-02-28T15:12:29;8.90;99.90
51557;DHT22;38766;53.194;5.532;2024-02-28T15:14:55;9.00;99.90
51557;DHT22;38766;53.194;5.532;2024-02-28T15:17:21;9.00;99.90
51557;DHT22;38766;53.194;5.532;2024-02-28T15:19:47;9.00;99.90
51557;DHT22;38766;53.194;5.532;2024-02-28T15:22:13;9.00;99.90
51557;DHT22;38766;53.194;5.532;2024-02-28T15:24:38;9.00;99.90
51557;DHT22;38766;53.194;5.532;2024-02-28T15:27:05;9.10;99.90
51557;DHT22;38766;53.194;5.532;2024-02-28T15:29:32;9.10;99.90
51557;DHT22;38766;53.194;5.532;2024-02-28T15:31:58;9.10;99.90
51557;DHT22;38766;53.194;5.532;2024-02-28T15:34:23;9.00;99.90
51557;DHT22;38766;53.194;5.532;2024-02-28T15:36:49;9.00;99.90
51557;DHT22;38766;53.194;5.532;2024-02-28T15:39:15;9.00;99.90